sensor_id;sensor_type;location;lat;lon;timestamp;pressure;altitude;pressure_sealevel;temperature
81319;BMP280;74078;48.420;14.828;2023-12-28T00:00:06;92743.56;;;4.97
81319;BMP280;74078;48.420;14.828;2023-12-28T00:02:32;92750.16;;;5.34
81319;BMP280;74078;48.420;14.828;2023-12-28T00:04:57;92747.09;;;5.66
81319;BMP280;74078;48.420;14.828;2023-12-28T00:07:22;92738.59;;;5.56
81319;BMP280;74078;48.420;14.828;2023-12-28T00:09:47;92740.75;;;5.38
81319;BMP280;74078;48.420;14.828;2023-12-28T00:12:13;92735.53;;;5.25
81319;BMP280;74078;48.420;14.828;2023-12-28T00:14:38;92735.19;;;5.46
81319;BMP280;74078;48.420;14.828;2023-12-28T00:17:03;92740.09;;;5.10
81319;BMP280;74078;48.420;14.828;2023-12-28T00:19:29;92744.16;;;4.81
81319;BMP280;74078;48.420;14.828;2023-12-28T00:21:54;92742.50;;;4.94
81319;BMP280;74078;48.420;14.828;2023-12-28T00:24:19;92745.72;;;5.61
81319;BMP280;74078;48.420;14.828;2023-12-28T00:26:45;92734.56;;;5.62
81319;BMP280;74078;48.420;14.828;2023-12-28T00:29:10;92744.19;;;5.24
81319;BMP280;74078;48.420;14.828;2023-12-28T00:31:35;92738.75;;;5.49
81319;BMP280;74078;48.420;14.828;2023-12-28T00:34:00;92738.69;;;5.72
81319;BMP280;74078;48.420;14.828;2023-12-28T00:36:26;92731.75;;;5.37
81319;BMP280;74078;48.420;14.828;2023-12-28T00:38:52;92737.31;;;5.28
81319;BMP280;74078;48.420;14.828;2023-12-28T00:41:17;92730.75;;;6.45
81319;BMP280;74078;48.420;14.828;2023-12-28T00:43:42;92734.59;;;6.34
81319;BMP280;74078;48.420;14.828;2023-12-28T00:46:08;92722.88;;;6.07
81319;BMP280;74078;48.420;14.828;2023-12-28T00:48:33;92729.81;;;6.03
81319;BMP280;74078;48.420;14.828;2023-12-28T00:50:58;92725.25;;;5.59
81319;BMP280;74078;48.420;14.828;2023-12-28T00:53:24;92725.91;;;5.63
81319;BMP280;74078;48.420;14.828;2023-12-28T00:55:49;92717.66;;;5.98
81319;BMP280;74078;48.420;14.828;2023-12-28T00:58:15;92720.94;;;5.40
81319;BMP280;74078;48.420;14.828;2023-12-28T01:00:40;92718.25;;;5.47
81319;BMP280;74078;48.420;14.828;2023-12-28T01:03:05;92724.75;;;5.25
81319;BMP280;74078;48.420;14.828;2023-12-28T01:05:30;92728.34;;;5.47
81319;BMP280;74078;48.420;14.828;2023-12-28T01:07:56;92725.53;;;5.41
81319;BMP280;74078;48.420;14.828;2023-12-28T01:10:21;92726.44;;;6.10
81319;BMP280;74078;48.420;14.828;2023-12-28T01:12:46;92732.53;;;6.12
81319;BMP280;74078;48.420;14.828;2023-12-28T01:15:11;92733.53;;;6.15
81319;BMP280;74078;48.420;14.828;2023-12-28T01:17:37;92730.81;;;6.26
81319;BMP280;74078;48.420;14.828;2023-12-28T01:20:03;92733.53;;;6.51
81319;BMP280;74078;48.420;14.828;2023-12-28T01:22:28;92737.91;;;5.75
81319;BMP280;74078;48.420;14.828;2023-12-28T01:24:54;92742.13;;;6.17
81319;BMP280;74078;48.420;14.828;2023-12-28T01:27:19;92741.72;;;5.63
81319;BMP280;74078;48.420;14.828;2023-12-28T01:29:44;92739.72;;;5.94
81319;BMP280;74078;48.420;14.828;2023-12-28T01:32:09;92735.56;;;5.02
81319;BMP280;74078;48.420;14.828;2023-12-28T01:34:34;92727.44;;;5.96
81319;BMP280;74078;48.420;14.828;2023-12-28T01:37:00;92725.25;;;5.59
81319;BMP280;74078;48.420;14.828;2023-12-28T01:39:25;92738.34;;;5.07
81319;BMP280;74078;48.420;14.828;2023-12-28T01:41:50;92738.44;;;5.47
81319;BMP280;74078;48.420;14.828;2023-12-28T01:44:15;92729.31;;;5.92
81319;BMP280;74078;48.420;14.828;2023-12-28T01:46:41;92737.16;;;5.78
81319;BMP280;74078;48.420;14.828;2023-12-28T01:49:06;92738.81;;;6.04
81319;BMP280;74078;48.420;14.828;2023-12-28T01:51:32;92729.28;;;5.33
81319;BMP280;74078;48.420;14.828;2023-12-28T01:53:57;92734.28;;;5.14
81319;BMP280;74078;48.420;14.828;2023-12-28T01:56:23;92731.22;;;5.02
81319;BMP280;74078;48.420;14.828;2023-12-28T01:58:49;92739.47;;;5.69
81319;BMP280;74078;48.420;14.828;2023-12-28T02:01:14;92746.28;;;5.06
81319;BMP280;74078;48.420;14.828;2023-12-28T02:03:39;92741.84;;;4.90
81319;BMP280;74078;48.420;14.828;2023-12-28T02:06:06;92746.41;;;4.99
81319;BMP280;74078;48.420;14.828;2023-12-28T02:08:31;92738.13;;;5.22
81319;BMP280;74078;48.420;14.828;2023-12-28T02:10:57;92736.09;;;5.56
81319;BMP280;74078;48.420;14.828;2023-12-28T02:13:22;92736.22;;;5.49
81319;BMP280;74078;48.420;14.828;2023-12-28T02:15:50;92732.88;;;5.36
81319;BMP280;74078;48.420;14.828;2023-12-28T02:18:18;92734.69;;;5.75
81319;BMP280;74078;48.420;14.828;2023-12-28T02:20:44;92734.03;;;5.08
81319;BMP280;74078;48.420;14.828;2023-12-28T02:23:10;92728.81;;;5.19
81319;BMP280;74078;48.420;14.828;2023-12-28T02:25:36;92739.94;;;4.98
81319;BMP280;74078;48.420;14.828;2023-12-28T02:28:01;92741.59;;;4.31
81319;BMP280;74078;48.420;14.828;2023-12-28T02:30:27;92739.81;;;4.32
81319;BMP280;74078;48.420;14.828;2023-12-28T02:33:00;92740.34;;;5.20
81319;BMP280;74078;48.420;14.828;2023-12-28T02:35:31;92753.13;;;4.29
81319;BMP280;74078;48.420;14.828;2023-12-28T02:37:58;92746.25;;;4.33
81319;BMP280;74078;48.420;14.828;2023-12-28T02:40:24;92742.94;;;4.66
81319;BMP280;74078;48.420;14.828;2023-12-28T02:42:50;92755.56;;;4.89
81319;BMP280;74078;48.420;14.828;2023-12-28T02:45:15;92756.44;;;4.52
81319;BMP280;74078;48.420;14.828;2023-12-28T02:47:40;92752.75;;;4.57
81319;BMP280;74078;48.420;14.828;2023-12-28T02:50:06;92759.66;;;4.53
81319;BMP280;74078;48.420;14.828;2023-12-28T02:52:31;92767.66;;;4.14
81319;BMP280;74078;48.420;14.828;2023-12-28T02:54:56;92761.78;;;4.28
81319;BMP280;74078;48.420;14.828;2023-12-28T02:57:22;92779.03;;;4.26
81319;BMP280;74078;48.420;14.828;2023-12-28T02:59:47;92773.59;;;4.31
81319;BMP280;74078;48.420;14.828;2023-12-28T03:02:13;92777.88;;;4.61
81319;BMP280;74078;48.420;14.828;2023-12-28T03:04:39;92772.06;;;4.37
81319;BMP280;74078;48.420;14.828;2023-12-28T03:07:12;92772.44;;;4.35
81319;BMP280;74078;48.420;14.828;2023-12-28T03:09:39;92781.22;;;4.24
81319;BMP280;74078;48.420;14.828;2023-12-28T03:12:05;92785.25;;;4.14
81319;BMP280;74078;48.420;14.828;2023-12-28T03:14:31;92780.47;;;4.27
81319;BMP280;74078;48.420;14.828;2023-12-28T03:16:57;92777.47;;;3.71
81319;BMP280;74078;48.420;14.828;2023-12-28T03:19:23;92774.66;;;3.66
81319;BMP280;74078;48.420;14.828;2023-12-28T03:21:50;92785.81;;;3.17
81319;BMP280;74078;48.420;14.828;2023-12-28T03:24:16;92781.53;;;3.14
81319;BMP280;74078;48.420;14.828;2023-12-28T03:26:43;92782.31;;;3.07
81319;BMP280;74078;48.420;14.828;2023-12-28T03:29:09;92786.72;;;3.40
81319;BMP280;74078;48.420;14.828;2023-12-28T03:31:42;92788.97;;;3.28
81319;BMP280;74078;48.420;14.828;2023-12-28T03:34:08;92789.66;;;3.28
81319;BMP280;74078;48.420;14.828;2023-12-28T03:36:34;92792.00;;;3.05
81319;BMP280;74078;48.420;14.828;2023-12-28T03:39:01;92791.50;;;3.28
81319;BMP280;74078;48.420;14.828;2023-12-28T03:41:29;92791.50;;;3.24
81319;BMP280;74078;48.420;14.828;2023-12-28T03:43:55;92787.16;;;3.32
81319;BMP280;74078;48.420;14.828;2023-12-28T03:46:21;92787.88;;;3.29
81319;BMP280;74078;48.420;14.828;2023-12-28T03:48:47;92790.91;;;3.06
81319;BMP280;74078;48.420;14.828;2023-12-28T03:51:14;92797.50;;;2.89
81319;BMP280;74078;48.420;14.828;2023-12-28T03:53:41;92797.22;;;3.25
81319;BMP280;74078;48.420;14.828;2023-12-28T03:56:08;92797.56;;;3.30
81319;BMP280;74078;48.420;14.828;2023-12-28T03:58:34;92808.13;;;3.08
81319;BMP280;74078;48.420;14.828;2023-12-28T04:01:01;92800.78;;;2.76
81319;BMP280;74078;48.420;14.828;2023-12-28T04:03:27;92804.66;;;2.91
81319;BMP280;74078;48.420;14.828;2023-12-28T04:05:54;92818.38;;;2.69
81319;BMP280;74078;48.420;14.828;2023-12-28T04:08:20;92807.06;;;2.32
81319;BMP280;74078;48.420;14.828;2023-12-28T04:10:49;92811.44;;;2.18
81319;BMP280;74078;48.420;14.828;2023-12-28T04:13:15;92817.53;;;2.13
81319;BMP280;74078;48.420;14.828;2023-12-28T04:15:42;92823.16;;;2.45
81319;BMP280;74078;48.420;14.828;2023-12-28T04:18:08;92817.59;;;2.89
81319;BMP280;74078;48.420;14.828;2023-12-28T04:20:35;92811.06;;;2.95
81319;BMP280;74078;48.420;14.828;2023-12-28T04:23:01;92811.88;;;2.85
81319;BMP280;74078;48.420;14.828;2023-12-28T04:25:27;92815.31;;;3.06
81319;BMP280;74078;48.420;14.828;2023-12-28T04:27:53;92827.50;;;3.11
81319;BMP280;74078;48.420;14.828;2023-12-28T04:30:20;92827.38;;;3.25
81319;BMP280;74078;48.420;14.828;2023-12-28T04:32:46;92829.78;;;3.46
81319;BMP280;74078;48.420;14.828;2023-12-28T04:35:13;92833.78;;;3.36
81319;BMP280;74078;48.420;14.828;2023-12-28T04:37:39;92828.13;;;3.22
81319;BMP280;74078;48.420;14.828;2023-12-28T04:40:06;92839.72;;;3.02
81319;BMP280;74078;48.420;14.828;2023-12-28T04:42:32;92833.28;;;3.04
81319;BMP280;74078;48.420;14.828;2023-12-28T04:44:59;92826.75;;;3.14
81319;BMP280;74078;48.420;14.828;2023-12-28T04:47:25;92826.00;;;3.17
81319;BMP280;74078;48.420;14.828;2023-12-28T04:49:52;92821.81;;;3.47
81319;BMP280;74078;48.420;14.828;2023-12-28T04:52:18;92816.28;;;3.70
81319;BMP280;74078;48.420;14.828;2023-12-28T04:54:45;92821.53;;;3.42
81319;BMP280;74078;48.420;14.828;2023-12-28T04:57:14;92824.63;;;3.60
81319;BMP280;74078;48.420;14.828;2023-12-28T04:59:40;92832.06;;;3.71
81319;BMP280;74078;48.420;14.828;2023-12-28T05:02:07;92835.78;;;3.56
81319;BMP280;74078;48.420;14.828;2023-12-28T05:04:33;92830.16;;;3.41
81319;BMP280;74078;48.420;14.828;2023-12-28T05:07:04;92839.75;;;3.53
81319;BMP280;74078;48.420;14.828;2023-12-28T05:09:30;92832.88;;;3.61
81319;BMP280;74078;48.420;14.828;2023-12-28T05:11:57;92839.50;;;3.40
81319;BMP280;74078;48.420;14.828;2023-12-28T05:14:27;92835.28;;;3.27
81319;BMP280;74078;48.420;14.828;2023-12-28T05:16:54;92842.44;;;3.28
81319;BMP280;74078;48.420;14.828;2023-12-28T05:19:20;92843.09;;;3.43
81319;BMP280;74078;48.420;14.828;2023-12-28T05:21:46;92839.69;;;3.60
81319;BMP280;74078;48.420;14.828;2023-12-28T05:24:13;92845.97;;;3.38
81319;BMP280;74078;48.420;14.828;2023-12-28T05:26:39;92853.03;;;3.54
81319;BMP280;74078;48.420;14.828;2023-12-28T05:29:06;92853.78;;;3.47
81319;BMP280;74078;48.420;14.828;2023-12-28T05:31:32;92857.44;;;3.42
81319;BMP280;74078;48.420;14.828;2023-12-28T05:33:58;92856.03;;;3.38
81319;BMP280;74078;48.420;14.828;2023-12-28T05:36:25;92849.47;;;3.47
81319;BMP280;74078;48.420;14.828;2023-12-28T05:38:51;92850.09;;;3.66
81319;BMP280;74078;48.420;14.828;2023-12-28T05:41:17;92846.34;;;3.81
81319;BMP280;74078;48.420;14.828;2023-12-28T05:43:43;92849.38;;;3.62
81319;BMP280;74078;48.420;14.828;2023-12-28T05:46:10;92846.00;;;3.34
81319;BMP280;74078;48.420;14.828;2023-12-28T05:48:36;92843.09;;;3.43
81319;BMP280;74078;48.420;14.828;2023-12-28T05:51:02;92850.88;;;3.52
81319;BMP280;74078;48.420;14.828;2023-12-28T05:53:28;92856.03;;;3.38
81319;BMP280;74078;48.420;14.828;2023-12-28T05:55:55;92847.53;;;3.18
81319;BMP280;74078;48.420;14.828;2023-12-28T05:58:21;92843.09;;;3.36
81319;BMP280;74078;48.420;14.828;2023-12-28T06:00:48;92852.28;;;3.57
81319;BMP280;74078;48.420;14.828;2023-12-28T06:03:14;92854.75;;;3.64
81319;BMP280;74078;48.420;14.828;2023-12-28T06:05:41;92861.00;;;3.45
81319;BMP280;74078;48.420;14.828;2023-12-28T06:08:07;92852.94;;;3.68
81319;BMP280;74078;48.420;14.828;2023-12-28T06:10:33;92853.88;;;3.81
81319;BMP280;74078;48.420;14.828;2023-12-28T06:12:59;92852.97;;;4.01
81319;BMP280;74078;48.420;14.828;2023-12-28T06:15:26;92847.97;;;3.98
81319;BMP280;74078;48.420;14.828;2023-12-28T06:17:52;92857.84;;;3.78
81319;BMP280;74078;48.420;14.828;2023-12-28T06:20:19;92861.03;;;3.89
81319;BMP280;74078;48.420;14.828;2023-12-28T06:22:45;92851.97;;;3.51
81319;BMP280;74078;48.420;14.828;2023-12-28T06:25:14;92856.25;;;3.54
81319;BMP280;74078;48.420;14.828;2023-12-28T06:27:41;92854.94;;;3.42
81319;BMP280;74078;48.420;14.828;2023-12-28T06:30:07;92858.88;;;3.40
81319;BMP280;74078;48.420;14.828;2023-12-28T06:32:33;92861.81;;;3.24
81319;BMP280;74078;48.420;14.828;2023-12-28T06:35:00;92867.72;;;3.04
81319;BMP280;74078;48.420;14.828;2023-12-28T06:37:26;92864.44;;;3.14
81319;BMP280;74078;48.420;14.828;2023-12-28T06:39:52;92866.25;;;3.10
81319;BMP280;74078;48.420;14.828;2023-12-28T06:42:19;92863.28;;;3.22
81319;BMP280;74078;48.420;14.828;2023-12-28T06:44:45;92866.13;;;3.27
81319;BMP280;74078;48.420;14.828;2023-12-28T06:47:12;92866.38;;;3.47
81319;BMP280;74078;48.420;14.828;2023-12-28T06:49:38;92865.50;;;3.68
81319;BMP280;74078;48.420;14.828;2023-12-28T06:52:05;92868.66;;;3.75
81319;BMP280;74078;48.420;14.828;2023-12-28T06:54:31;92865.66;;;3.91
81319;BMP280;74078;48.420;14.828;2023-12-28T06:57:01;92866.22;;;4.06
81319;BMP280;74078;48.420;14.828;2023-12-28T06:59:27;92871.78;;;4.27
81319;BMP280;74078;48.420;14.828;2023-12-28T07:01:54;92877.50;;;4.31
81319;BMP280;74078;48.420;14.828;2023-12-28T07:04:20;92880.81;;;4.55
81319;BMP280;74078;48.420;14.828;2023-12-28T07:06:46;92880.88;;;4.51
81319;BMP280;74078;48.420;14.828;2023-12-28T07:09:13;92888.31;;;4.62
81319;BMP280;74078;48.420;14.828;2023-12-28T07:11:40;92889.97;;;4.72
81319;BMP280;74078;48.420;14.828;2023-12-28T07:14:06;92893.66;;;4.64
81319;BMP280;74078;48.420;14.828;2023-12-28T07:16:32;92880.53;;;4.80
81319;BMP280;74078;48.420;14.828;2023-12-28T07:18:58;92889.22;;;5.05
81319;BMP280;74078;48.420;14.828;2023-12-28T07:21:25;92887.81;;;5.28
81319;BMP280;74078;48.420;14.828;2023-12-28T07:23:51;92889.75;;;5.43
81319;BMP280;74078;48.420;14.828;2023-12-28T07:26:18;92888.47;;;5.32
81319;BMP280;74078;48.420;14.828;2023-12-28T07:28:44;92884.19;;;5.29
81319;BMP280;74078;48.420;14.828;2023-12-28T07:31:34;92876.56;;;5.36
81319;BMP280;74078;48.420;14.828;2023-12-28T07:33:59;92876.69;;;5.48
81319;BMP280;74078;48.420;14.828;2023-12-28T07:36:26;92879.53;;;5.54
81319;BMP280;74078;48.420;14.828;2023-12-28T07:38:53;92878.66;;;5.60
81319;BMP280;74078;48.420;14.828;2023-12-28T07:41:22;92879.22;;;5.72
81319;BMP280;74078;48.420;14.828;2023-12-28T07:43:48;92878.41;;;5.78
81319;BMP280;74078;48.420;14.828;2023-12-28T07:46:15;92877.63;;;5.81
81319;BMP280;74078;48.420;14.828;2023-12-28T07:48:41;92880.13;;;6.04
81319;BMP280;74078;48.420;14.828;2023-12-28T07:51:08;92883.47;;;6.17
81319;BMP280;74078;48.420;14.828;2023-12-28T07:53:34;92880.38;;;6.30
81319;BMP280;74078;48.420;14.828;2023-12-28T07:56:01;92882.31;;;6.42
81319;BMP280;74078;48.420;14.828;2023-12-28T07:58:27;92883.47;;;6.57
81319;BMP280;74078;48.420;14.828;2023-12-28T08:00:53;92887.59;;;6.67
81319;BMP280;74078;48.420;14.828;2023-12-28T08:03:20;92884.47;;;6.79
81319;BMP280;74078;48.420;14.828;2023-12-28T08:05:46;92883.56;;;6.89
81319;BMP280;74078;48.420;14.828;2023-12-28T08:08:13;92880.63;;;7.07
81319;BMP280;74078;48.420;14.828;2023-12-28T08:10:40;92878.75;;;7.11
81319;BMP280;74078;48.420;14.828;2023-12-28T08:13:06;92884.00;;;7.36
81319;BMP280;74078;48.420;14.828;2023-12-28T08:15:33;92885.28;;;7.73
81319;BMP280;74078;48.420;14.828;2023-12-28T08:17:59;92883.16;;;8.00
81319;BMP280;74078;48.420;14.828;2023-12-28T08:20:26;92878.81;;;8.01
81319;BMP280;74078;48.420;14.828;2023-12-28T08:22:52;92881.44;;;7.97
81319;BMP280;74078;48.420;14.828;2023-12-28T08:25:18;92884.84;;;8.19
81319;BMP280;74078;48.420;14.828;2023-12-28T08:27:45;92886.69;;;8.31
81319;BMP280;74078;48.420;14.828;2023-12-28T08:30:11;92877.34;;;8.82
81319;BMP280;74078;48.420;14.828;2023-12-28T08:32:37;92874.66;;;9.11
81319;BMP280;74078;48.420;14.828;2023-12-28T08:35:04;92880.38;;;9.49
81319;BMP280;74078;48.420;14.828;2023-12-28T08:37:32;92876.34;;;9.39
81319;BMP280;74078;48.420;14.828;2023-12-28T08:39:59;92882.78;;;9.87
81319;BMP280;74078;48.420;14.828;2023-12-28T08:42:25;92878.88;;;9.74
81319;BMP280;74078;48.420;14.828;2023-12-28T08:44:51;92886.72;;;9.66
81319;BMP280;74078;48.420;14.828;2023-12-28T08:47:18;92883.47;;;9.19
81319;BMP280;74078;48.420;14.828;2023-12-28T08:49:44;92884.84;;;9.45
81319;BMP280;74078;48.420;14.828;2023-12-28T08:52:11;92890.47;;;9.28
81319;BMP280;74078;48.420;14.828;2023-12-28T08:54:37;92886.31;;;9.90
81319;BMP280;74078;48.420;14.828;2023-12-28T08:57:03;92885.38;;;10.18
81319;BMP280;74078;48.420;14.828;2023-12-28T08:59:30;92886.41;;;9.64
81319;BMP280;74078;48.420;14.828;2023-12-28T09:01:56;92879.03;;;10.22
81319;BMP280;74078;48.420;14.828;2023-12-28T09:04:22;92880.53;;;10.72
81319;BMP280;74078;48.420;14.828;2023-12-28T09:06:49;92877.84;;;10.67
81319;BMP280;74078;48.420;14.828;2023-12-28T09:09:15;92879.88;;;10.41
81319;BMP280;74078;48.420;14.828;2023-12-28T09:11:42;92882.41;;;10.81
81319;BMP280;74078;48.420;14.828;2023-12-28T09:14:08;92883.44;;;10.93
81319;BMP280;74078;48.420;14.828;2023-12-28T09:16:35;92887.03;;;11.40
81319;BMP280;74078;48.420;14.828;2023-12-28T09:19:01;92872.75;;;11.43
81319;BMP280;74078;48.420;14.828;2023-12-28T09:21:28;92880.78;;;10.65
81319;BMP280;74078;48.420;14.828;2023-12-28T09:23:54;92887.41;;;11.12
81319;BMP280;74078;48.420;14.828;2023-12-28T09:26:20;92889.69;;;11.10
81319;BMP280;74078;48.420;14.828;2023-12-28T09:28:47;92885.38;;;11.37
81319;BMP280;74078;48.420;14.828;2023-12-28T09:31:13;92881.25;;;11.67
81319;BMP280;74078;48.420;14.828;2023-12-28T09:33:39;92879.84;;;11.66
81319;BMP280;74078;48.420;14.828;2023-12-28T09:36:06;92875.53;;;12.50
81319;BMP280;74078;48.420;14.828;2023-12-28T09:38:33;92878.28;;;11.87
81319;BMP280;74078;48.420;14.828;2023-12-28T09:41:04;92881.66;;;12.76
81319;BMP280;74078;48.420;14.828;2023-12-28T09:43:41;92885.88;;;12.14
81319;BMP280;74078;48.420;14.828;2023-12-28T09:46:10;92886.78;;;12.35
81319;BMP280;74078;48.420;14.828;2023-12-28T09:48:37;92879.16;;;13.00
81319;BMP280;74078;48.420;14.828;2023-12-28T09:51:06;92876.28;;;13.45
81319;BMP280;74078;48.420;14.828;2023-12-28T09:53:32;92882.50;;;12.82
81319;BMP280;74078;48.420;14.828;2023-12-28T09:55:59;92874.19;;;13.73
81319;BMP280;74078;48.420;14.828;2023-12-28T09:58:25;92867.66;;;14.16
81319;BMP280;74078;48.420;14.828;2023-12-28T10:00:53;92868.69;;;13.36
81319;BMP280;74078;48.420;14.828;2023-12-28T10:03:20;92861.53;;;13.79
81319;BMP280;74078;48.420;14.828;2023-12-28T10:05:46;92865.69;;;13.00
81319;BMP280;74078;48.420;14.828;2023-12-28T10:08:13;92869.06;;;12.40
81319;BMP280;74078;48.420;14.828;2023-12-28T10:10:44;92867.97;;;13.36
81319;BMP280;74078;48.420;14.828;2023-12-28T10:13:19;92870.25;;;13.72
81319;BMP280;74078;48.420;14.828;2023-12-28T10:15:47;92868.88;;;14.35
81319;BMP280;74078;48.420;14.828;2023-12-28T10:18:13;92855.63;;;16.14
81319;BMP280;74078;48.420;14.828;2023-12-28T10:20:40;92861.94;;;16.61
81319;BMP280;74078;48.420;14.828;2023-12-28T10:23:06;92855.53;;;14.26
81319;BMP280;74078;48.420;14.828;2023-12-28T10:25:36;92853.28;;;16.11
81319;BMP280;74078;48.420;14.828;2023-12-28T10:28:05;92853.50;;;13.86
81319;BMP280;74078;48.420;14.828;2023-12-28T10:30:34;92849.91;;;14.07
81319;BMP280;74078;48.420;14.828;2023-12-28T10:33:00;92848.81;;;13.55
81319;BMP280;74078;48.420;14.828;2023-12-28T10:35:29;92850.31;;;12.85
81319;BMP280;74078;48.420;14.828;2023-12-28T10:37:55;92851.34;;;13.02
81319;BMP280;74078;48.420;14.828;2023-12-28T10:40:25;92847.13;;;12.99
81319;BMP280;74078;48.420;14.828;2023-12-28T10:42:53;92841.31;;;13.37
81319;BMP280;74078;48.420;14.828;2023-12-28T10:45:20;92836.84;;;13.90
81319;BMP280;74078;48.420;14.828;2023-12-28T10:48:08;92838.47;;;14.22
81319;BMP280;74078;48.420;14.828;2023-12-28T10:50:39;92830.16;;;13.49
81319;BMP280;74078;48.420;14.828;2023-12-28T10:53:26;92829.19;;;13.23
81319;BMP280;74078;48.420;14.828;2023-12-28T11:01:26;92833.91;;;13.53
81319;BMP280;74078;48.420;14.828;2023-12-28T11:03:58;92826.97;;;13.98
81319;BMP280;74078;48.420;14.828;2023-12-28T11:06:29;92832.09;;;13.83
81319;BMP280;74078;48.420;14.828;2023-12-28T11:08:56;92835.00;;;13.91
81319;BMP280;74078;48.420;14.828;2023-12-28T11:11:24;92833.09;;;13.33
81319;BMP280;74078;48.420;14.828;2023-12-28T11:13:51;92831.63;;;13.85
81319;BMP280;74078;48.420;14.828;2023-12-28T11:16:18;92824.91;;;13.29
81319;BMP280;74078;48.420;14.828;2023-12-28T11:18:46;92825.38;;;13.86
81319;BMP280;74078;48.420;14.828;2023-12-28T11:21:13;92817.03;;;14.35
81319;BMP280;74078;48.420;14.828;2023-12-28T11:23:39;92817.28;;;14.71
81319;BMP280;74078;48.420;14.828;2023-12-28T11:26:15;92817.84;;;14.61
81319;BMP280;74078;48.420;14.828;2023-12-28T11:28:41;92817.00;;;14.69
81319;BMP280;74078;48.420;14.828;2023-12-28T11:31:13;92815.06;;;14.44
81319;BMP280;74078;48.420;14.828;2023-12-28T11:33:45;92817.81;;;14.06
81319;BMP280;74078;48.420;14.828;2023-12-28T11:36:21;92805.22;;;14.37
81319;BMP280;74078;48.420;14.828;2023-12-28T11:38:48;92812.81;;;14.32
81319;BMP280;74078;48.420;14.828;2023-12-28T11:41:19;92802.66;;;14.77
81319;BMP280;74078;48.420;14.828;2023-12-28T11:43:51;92799.66;;;14.59
81319;BMP280;74078;48.420;14.828;2023-12-28T11:46:16;92789.56;;;14.70
81319;BMP280;74078;48.420;14.828;2023-12-28T11:48:42;92791.00;;;14.97
81319;BMP280;74078;48.420;14.828;2023-12-28T11:51:07;92787.44;;;15.65
81319;BMP280;74078;48.420;14.828;2023-12-28T11:53:33;92788.22;;;15.77
81319;BMP280;74078;48.420;14.828;2023-12-28T11:56:01;92775.47;;;16.30
81319;BMP280;74078;48.420;14.828;2023-12-28T11:58:27;92775.13;;;16.60
81319;BMP280;74078;48.420;14.828;2023-12-28T12:00:53;92766.00;;;16.48
81319;BMP280;74078;48.420;14.828;2023-12-28T12:03:18;92773.09;;;16.86
81319;BMP280;74078;48.420;14.828;2023-12-28T12:05:44;92768.03;;;17.30
81319;BMP280;74078;48.420;14.828;2023-12-28T12:08:10;92776.50;;;16.07
81319;BMP280;74078;48.420;14.828;2023-12-28T12:10:42;92772.56;;;16.12
81319;BMP280;74078;48.420;14.828;2023-12-28T12:13:07;92780.09;;;16.80
81319;BMP280;74078;48.420;14.828;2023-12-28T12:15:33;92783.66;;;15.61
81319;BMP280;74078;48.420;14.828;2023-12-28T12:17:58;92778.72;;;14.40
81319;BMP280;74078;48.420;14.828;2023-12-28T12:20:23;92775.16;;;14.52
81319;BMP280;74078;48.420;14.828;2023-12-28T12:22:49;92772.69;;;14.23
81319;BMP280;74078;48.420;14.828;2023-12-28T12:25:14;92773.19;;;14.42
81319;BMP280;74078;48.420;14.828;2023-12-28T12:27:40;92777.25;;;12.73
81319;BMP280;74078;48.420;14.828;2023-12-28T12:30:06;92772.16;;;12.73
81319;BMP280;74078;48.420;14.828;2023-12-28T12:32:32;92775.00;;;13.13
81319;BMP280;74078;48.420;14.828;2023-12-28T12:34:57;92772.84;;;12.73
81319;BMP280;74078;48.420;14.828;2023-12-28T12:37:23;92759.97;;;12.20
81319;BMP280;74078;48.420;14.828;2023-12-28T12:39:48;92775.63;;;12.04
81319;BMP280;74078;48.420;14.828;2023-12-28T12:42:14;92772.88;;;11.66
81319;BMP280;74078;48.420;14.828;2023-12-28T12:44:39;92779.19;;;11.89
81319;BMP280;74078;48.420;14.828;2023-12-28T12:47:04;92777.75;;;11.37
81319;BMP280;74078;48.420;14.828;2023-12-28T12:49:30;92769.50;;;11.42
81319;BMP280;74078;48.420;14.828;2023-12-28T12:51:55;92770.41;;;11.21
81319;BMP280;74078;48.420;14.828;2023-12-28T12:54:22;92771.38;;;11.32
81319;BMP280;74078;48.420;14.828;2023-12-28T12:56:47;92774.03;;;11.56
81319;BMP280;74078;48.420;14.828;2023-12-28T12:59:13;92771.47;;;11.74
81319;BMP280;74078;48.420;14.828;2023-12-28T13:01:46;92780.94;;;12.15
81319;BMP280;74078;48.420;14.828;2023-12-28T13:04:16;92776.28;;;11.72
81319;BMP280;74078;48.420;14.828;2023-12-28T13:06:41;92770.91;;;11.61
81319;BMP280;74078;48.420;14.828;2023-12-28T13:09:06;92753.00;;;11.10
81319;BMP280;74078;48.420;14.828;2023-12-28T13:11:32;92754.81;;;11.19
81319;BMP280;74078;48.420;14.828;2023-12-28T13:13:58;92750.84;;;10.63
81319;BMP280;74078;48.420;14.828;2023-12-28T13:16:23;92748.91;;;10.95
81319;BMP280;74078;48.420;14.828;2023-12-28T13:18:48;92753.38;;;10.63
81319;BMP280;74078;48.420;14.828;2023-12-28T13:21:14;92746.09;;;10.93
81319;BMP280;74078;48.420;14.828;2023-12-28T13:23:39;92743.81;;;10.67
81319;BMP280;74078;48.420;14.828;2023-12-28T13:26:04;92740.13;;;10.86
81319;BMP280;74078;48.420;14.828;2023-12-28T13:28:30;92749.03;;;10.73
81319;BMP280;74078;48.420;14.828;2023-12-28T13:30:55;92748.31;;;10.72
81319;BMP280;74078;48.420;14.828;2023-12-28T13:33:20;92745.16;;;10.50
81319;BMP280;74078;48.420;14.828;2023-12-28T13:35:46;92743.47;;;10.47
81319;BMP280;74078;48.420;14.828;2023-12-28T13:38:11;92748.78;;;9.91
81319;BMP280;74078;48.420;14.828;2023-12-28T13:40:36;92753.53;;;10.11
81319;BMP280;74078;48.420;14.828;2023-12-28T13:43:01;92742.44;;;10.26
81319;BMP280;74078;48.420;14.828;2023-12-28T13:45:27;92743.56;;;9.86
81319;BMP280;74078;48.420;14.828;2023-12-28T13:47:52;92742.69;;;10.10
81319;BMP280;74078;48.420;14.828;2023-12-28T13:50:17;92742.19;;;10.34
81319;BMP280;74078;48.420;14.828;2023-12-28T13:52:42;92747.81;;;10.28
81319;BMP280;74078;48.420;14.828;2023-12-28T13:55:08;92740.00;;;10.23
81319;BMP280;74078;48.420;14.828;2023-12-28T13:57:33;92745.25;;;10.19
81319;BMP280;74078;48.420;14.828;2023-12-28T13:59:58;92745.63;;;10.09
81319;BMP280;74078;48.420;14.828;2023-12-28T14:02:25;92744.16;;;9.99
81319;BMP280;74078;48.420;14.828;2023-12-28T14:04:51;92737.16;;;10.12